Time;durP1;ratioP1;P1;durP2;ratioP2;P2;SDS_P1;SDS_P2;PMS_P1;PMS_P2;Temp;Humidity;BMP_temperature;BMP_pressure;BME280_temperature;BME280_humidity;BME280_pressure;Samples;Min_cycle;Max_cycle;Signal;HPM_P1;HPM_P2
2022/01/18 00:00:46;;;;;;;2.70;1.40;;;1.00;99.90;;;;;;5077986;28;20050;-82
2022/01/18 00:03:12;;;;;;;2.28;1.42;;;1.00;99.90;;;;;;5077889;28;20024;-81
2022/01/18 00:05:38;;;;;;;5.88;1.98;;;1.10;99.90;;;;;;5077875;28;20043;-81
2022/01/18 00:08:04;;;;;;;9.30;2.60;;;1.10;99.90;;;;;;5078132;28;20031;-81
2022/01/18 00:10:32;;;;;;;8.95;2.60;;;1.10;99.90;;;;;;5077820;28;20032;-81
2022/01/18 00:18:18;;;;;;;4.10;1.70;;;1.20;99.90;;;;;;5095969;28;20024;-81
2022/01/18 00:23:15;;;;;;;3.33;1.50;;;1.20;99.90;;;;;;5096353;28;20103;-81
2022/01/18 00:25:45;;;;;;;2.92;1.35;;;1.20;99.90;;;;;;5077504;28;20024;-81
2022/01/18 00:28:15;;;;;;;3.20;1.20;;;1.20;99.90;;;;;;5095624;28;20476;-81
2022/01/18 00:31:20;;;;;;;3.20;1.67;;;1.20;99.90;;;;;;5095977;28;20032;-81
2022/01/18 00:36:27;;;;;;;3.30;1.65;;;1.30;99.90;;;;;;5096013;28;20024;-81
2022/01/18 00:38:53;;;;;;;3.22;1.80;;;1.30;99.90;;;;;;5096653;28;20418;-80
2022/01/18 00:41:21;;;;;;;3.47;1.60;;;1.30;99.90;;;;;;5077330;28;20056;-81
2022/01/18 00:43:47;;;;;;;3.15;1.80;;;1.20;99.90;;;;;;5095688;28;20071;-81
2022/01/18 00:46:13;;;;;;;4.05;1.80;;;1.10;99.90;;;;;;5077239;28;20020;-81
2022/01/18 00:48:40;;;;;;;3.38;1.70;;;1.10;99.90;;;;;;5095309;28;20021;-81
2022/01/18 00:51:10;;;;;;;3.60;2.00;;;1.10;99.90;;;;;;5077050;28;20020;-81
2022/01/18 00:53:37;;;;;;;3.72;1.88;;;1.10;99.90;;;;;;5095117;28;20489;-80
2022/01/18 00:58:41;;;;;;;3.40;1.92;;;1.10;99.90;;;;;;5095660;28;20020;-80
2022/01/18 01:01:07;;;;;;;3.75;1.98;;;1.10;99.90;;;;;;5076727;28;20016;-81
2022/01/18 01:03:33;;;;;;;3.05;1.75;;;1.10;99.90;;;;;;5076544;28;20028;-80
2022/01/18 01:06:00;;;;;;;5.05;2.35;;;1.10;99.90;;;;;;5076009;28;20046;-81
2022/01/18 01:08:25;;;;;;;4.22;2.13;;;1.10;99.90;;;;;;5095314;28;20605;-81
2022/01/18 01:10:51;;;;;;;2.65;1.60;;;1.10;99.90;;;;;;5095024;28;20041;-81
2022/01/18 01:13:17;;;;;;;4.45;2.10;;;1.10;99.90;;;;;;5095496;28;20024;-81
2022/01/18 01:16:06;;;;;;;4.40;1.88;;;1.20;99.90;;;;;;5094854;28;20078;-81
2022/01/18 01:34:49;;;;;;;2.65;1.85;;;1.10;99.90;;;;;;5094546;28;20039;-81
2022/01/18 01:45:28;;;;;;;2.88;1.60;;;1.00;99.90;;;;;;5094460;28;20104;-81
2022/01/18 01:47:56;;;;;;;3.53;1.70;;;1.00;99.90;;;;;;5075962;28;20032;-81
2022/01/18 01:50:24;;;;;;;3.78;1.90;;;1.00;99.90;;;;;;5094331;28;20476;-81
2022/01/18 01:52:53;;;;;;;2.92;1.75;;;0.90;99.90;;;;;;5094548;28;20031;-80
2022/01/18 01:55:20;;;;;;;3.53;2.08;;;1.00;99.90;;;;;;5075983;28;20032;-81
2022/01/18 01:57:45;;;;;;;5.53;2.97;;;0.90;99.90;;;;;;5094066;28;20020;-80
2022/01/18 02:00:19;;;;;;;4.97;2.88;;;0.90;99.90;;;;;;5094744;28;20035;-80
2022/01/18 02:02:46;;;;;;;4.13;2.40;;;0.90;99.90;;;;;;5094733;28;20368;-80
2022/01/18 02:05:12;;;;;;;5.00;2.75;;;0.90;99.90;;;;;;5094076;28;20039;-80
2022/01/18 02:07:38;;;;;;;4.40;2.53;;;0.90;99.90;;;;;;5075834;28;20429;-81
2022/01/18 02:10:07;;;;;;;3.65;1.80;;;0.90;99.90;;;;;;5094698;28;20030;-80
2022/01/18 02:12:34;;;;;;;4.55;1.90;;;0.90;99.90;;;;;;5094131;28;20024;-80
2022/01/18 02:15:09;;;;;;;3.25;1.60;;;0.90;99.90;;;;;;5075714;28;20021;-81
2022/01/18 02:23:17;;;;;;;2.80;1.80;;;1.00;99.90;;;;;;5093792;28;20035;-81
2022/01/18 02:25:43;;;;;;;4.57;2.20;;;1.00;99.90;;;;;;5093680;28;20027;-82
2022/01/18 02:28:09;;;;;;;3.95;2.25;;;1.00;99.90;;;;;;5093625;28;20020;-82
2022/01/18 02:30:35;;;;;;;4.78;2.20;;;1.00;99.90;;;;;;5075621;28;20032;-82
2022/01/18 02:33:00;;;;;;;3.17;1.77;;;1.00;99.90;;;;;;5075612;28;20032;-82
2022/01/18 02:35:26;;;;;;;3.33;2.10;;;1.00;99.90;;;;;;5075615;28;20496;-82
2022/01/18 02:37:55;;;;;;;3.30;2.10;;;1.00;99.90;;;;;;5075444;28;20380;-82
2022/01/18 02:40:20;;;;;;;3.22;2.03;;;1.10;99.90;;;;;;5093599;28;20026;-82
2022/01/18 02:42:56;;;;;;;3.38;2.00;;;1.00;99.90;;;;;;5093806;28;20095;-82
2022/01/18 02:45:22;;;;;;;3.13;1.88;;;1.00;99.90;;;;;;5075639;28;20484;-82
2022/01/18 02:47:48;;;;;;;3.80;1.90;;;1.00;99.90;;;;;;5075519;28;20035;-83
2022/01/18 02:50:14;;;;;;;3.53;2.00;;;1.00;99.90;;;;;;5079146;28;20114;-83
2022/01/18 02:52:40;;;;;;;4.32;2.15;;;1.00;99.90;;;;;;5097969;28;20484;-83
2022/01/18 02:55:06;;;;;;;5.55;2.10;;;1.00;99.90;;;;;;5097722;28;20028;-83
2022/01/18 02:57:40;;;;;;;2.50;1.13;;;1.00;99.90;;;;;;5097743;28;20032;-83
2022/01/18 03:00:17;;;;;;;2.15;1.00;;;1.00;99.90;;;;;;5097386;28;20113;-83
2022/01/18 03:05:27;;;;;;;1.48;0.80;;;1.10;99.90;;;;;;5097515;28;20046;-83
2022/01/18 03:07:53;;;;;;;4.20;0.85;;;1.10;99.90;;;;;;5079807;28;20065;-83
2022/01/18 03:10:19;;;;;;;1.70;1.00;;;1.10;99.90;;;;;;5079423;28;20024;-83
2022/01/18 03:12:46;;;;;;;1.92;1.08;;;1.10;99.90;;;;;;5097282;28;20065;-83
2022/01/18 03:15:12;;;;;;;1.95;1.10;;;1.00;99.90;;;;;;5097327;28;20392;-83
2022/01/18 03:17:38;;;;;;;1.67;1.00;;;1.00;99.90;;;;;;5097094;28;20020;-83
2022/01/18 03:20:06;;;;;;;1.85;1.10;;;1.00;99.90;;;;;;5097073;28;20024;-83
2022/01/18 03:22:32;;;;;;;2.97;1.10;;;0.90;99.90;;;;;;5078774;28;20487;-83
2022/01/18 03:25:13;;;;;;;1.67;1.10;;;0.90;99.90;;;;;;5097088;28;20028;-82
2022/01/18 03:30:23;;;;;;;2.85;1.45;;;0.90;99.90;;;;;;5097187;28;20537;-82
2022/01/18 03:32:49;;;;;;;1.77;0.98;;;0.90;99.90;;;;;;5096753;28;20028;-83
2022/01/18 03:35:15;;;;;;;2.05;1.20;;;0.90;99.90;;;;;;5097084;28;20069;-83
2022/01/18 03:37:42;;;;;;;3.17;1.35;;;0.90;99.90;;;;;;5096700;28;20539;-83
2022/01/18 03:40:09;;;;;;;1.98;1.13;;;0.90;99.90;;;;;;5096803;28;20026;-83
2022/01/18 03:42:40;;;;;;;2.08;1.10;;;0.90;99.90;;;;;;5078810;28;20024;-83
2022/01/18 03:45:08;;;;;;;;;;;0.90;99.90;;;;;;5097004;28;20361;-83
2022/01/18 03:47:34;;;;;;;3.67;2.00;;;0.90;99.90;;;;;;5096707;28;19911;-83
2022/01/18 03:50:01;;;;;;;3.40;1.80;;;0.80;99.90;;;;;;5078547;28;20536;-83
2022/01/18 03:52:26;;;;;;;3.38;1.80;;;0.80;99.90;;;;;;5078424;28;20551;-83
2022/01/18 03:54:53;;;;;;;3.13;1.95;;;0.80;99.90;;;;;;5078144;28;20119;-83
2022/01/18 03:57:19;;;;;;;3.50;2.00;;;0.80;99.90;;;;;;5096533;28;20460;-83
2022/01/18 03:59:46;;;;;;;2.67;1.73;;;0.80;99.90;;;;;;5077643;28;20035;-83
2022/01/18 04:02:11;;;;;;;4.15;2.20;;;0.80;99.90;;;;;;5096495;28;20032;-83
2022/01/18 04:04:38;;;;;;;3.42;2.38;;;0.80;99.90;;;;;;5096327;28;20530;-83
2022/01/18 04:07:04;;;;;;;3.40;2.28;;;0.80;99.90;;;;;;5096452;28;20024;-83
2022/01/18 04:09:32;;;;;;;3.45;2.10;;;0.80;99.90;;;;;;5077902;28;20058;-83
2022/01/18 04:11:58;;;;;;;4.72;2.58;;;0.80;99.90;;;;;;5096629;28;20027;-83
2022/01/18 04:14:24;;;;;;;4.05;2.33;;;0.80;99.90;;;;;;5095935;28;20024;-83
2022/01/18 04:17:11;;;;;;;3.92;2.42;;;0.90;99.90;;;;;;5096013;28;20097;-83
2022/01/18 04:27:51;;;;;;;3.80;1.88;;;0.90;99.90;;;;;;5095974;28;20047;-83
2022/01/18 04:30:17;;;;;;;3.20;1.95;;;0.90;99.90;;;;;;5077804;28;20400;-82
2022/01/18 04:32:47;;;;;;;3.65;2.17;;;0.90;99.90;;;;;;5077869;28;20028;-83
2022/01/18 04:35:13;;;;;;;2.97;1.73;;;0.90;99.90;;;;;;5078296;28;20032;-82
2022/01/18 04:37:39;;;;;;;3.50;1.70;;;0.90;99.90;;;;;;5095823;28;20047;-82
2022/01/18 04:40:12;;;;;;;6.20;2.35;;;0.90;99.90;;;;;;5095800;28;20101;-82
2022/01/18 04:43:07;;;;;;;3.60;2.25;;;0.90;99.90;;;;;;5077638;28;20020;-82
2022/01/18 04:48:34;;;;;;;3.05;1.95;;;0.90;99.90;;;;;;5096124;28;20157;-82
2022/01/18 04:51:09;;;;;;;3.67;1.90;;;0.90;99.90;;;;;;5095718;28;20528;-82
2022/01/18 04:53:49;;;;;;;4.38;2.58;;;0.90;99.90;;;;;;5077590;28;20032;-82
2022/01/18 04:56:18;;;;;;;4.53;2.63;;;0.90;99.90;;;;;;5077428;28;20024;-82
2022/01/18 04:58:44;;;;;;;3.45;2.38;;;0.90;99.90;;;;;;5095699;28;20046;-82
2022/01/18 05:01:12;;;;;;;4.53;2.92;;;1.00;99.90;;;;;;5095650;28;20035;-82
2022/01/18 05:03:38;;;;;;;5.80;3.72;;;0.90;99.90;;;;;;5095464;28;20035;-82
2022/01/18 05:06:09;;;;;;;4.47;3.13;;;0.90;99.90;;;;;;5077047;28;20048;-82
2022/01/18 05:08:38;;;;;;;;;;;0.90;99.90;;;;;;5095593;28;20031;-83
2022/01/18 05:11:05;;;;;;;5.43;3.40;;;0.80;99.90;;;;;;5094149;28;19943;-83
2022/01/18 05:16:22;;;;;;;11.82;6.10;;;0.80;99.90;;;;;;5094907;28;20026;-83
2022/01/18 05:24:17;;;;;;;10.77;5.30;;;0.80;99.90;;;;;;5095300;28;20031;-83
2022/01/18 05:26:43;;;;;;;8.50;4.30;;;0.80;99.90;;;;;;5076325;28;20024;-83
2022/01/18 05:29:08;;;;;;;8.30;4.13;;;0.80;99.90;;;;;;5094707;28;20027;-83
2022/01/18 05:31:34;;;;;;;7.07;3.70;;;0.80;99.90;;;;;;5094777;28;20024;-83
2022/01/18 05:34:00;;;;;;;6.00;3.58;;;0.80;99.90;;;;;;5094774;28;20508;-83
2022/01/18 05:36:27;;;;;;;6.03;2.97;;;0.80;99.90;;;;;;5095104;28;20060;-83
2022/01/18 05:38:53;;;;;;;7.00;3.55;;;0.80;99.90;;;;;;5076854;28;20024;-83
2022/01/18 05:41:18;;;;;;;9.23;3.85;;;0.80;99.90;;;;;;5096809;28;20111;-83
2022/01/18 05:43:45;;;;;;;9.75;4.60;;;0.80;99.90;;;;;;5078404;28;20498;-83
2022/01/18 05:46:14;;;;;;;7.10;4.47;;;0.80;99.90;;;;;;5078021;28;20489;-83
2022/01/18 05:48:39;;;;;;;11.82;4.85;;;0.80;99.90;;;;;;5096103;28;20020;-83
2022/01/18 05:51:05;;;;;;;8.45;5.28;;;0.80;99.90;;;;;;5096666;28;20024;-83
2022/01/18 05:53:39;;;;;;;9.20;5.13;;;0.80;99.90;;;;;;5078010;28;20062;-83
2022/01/18 05:56:06;;;;;;;7.15;4.38;;;0.80;99.90;;;;;;5095893;28;20016;-83
2022/01/18 05:58:32;;;;;;;7.65;4.85;;;0.80;99.90;;;;;;5095665;28;20024;-83
2022/01/18 06:00:58;;;;;;;7.97;5.00;;;0.80;99.90;;;;;;5095685;28;20020;-83
2022/01/18 06:04:16;;;;;;;6.75;3.72;;;0.80;99.90;;;;;;5095832;28;20050;-83
2022/01/18 06:09:00;;;;;;;7.57;3.67;;;0.80;99.90;;;;;;5096091;28;20560;-83
2022/01/18 06:11:25;;;;;;;6.13;3.20;;;0.80;99.90;;;;;;5076898;28;20051;-83
2022/01/18 06:13:51;;;;;;;6.68;3.13;;;0.80;99.90;;;;;;5076955;28;20024;-83
2022/01/18 06:16:17;;;;;;;6.93;3.28;;;0.80;99.90;;;;;;5077204;28;20071;-83
2022/01/18 06:18:42;;;;;;;6.25;3.35;;;0.80;99.90;;;;;;5076804;28;20020;-83
2022/01/18 06:21:08;;;;;;;6.30;3.42;;;0.80;99.90;;;;;;5095243;28;20506;-83
2022/01/18 06:23:34;;;;;;;7.55;3.47;;;0.80;99.90;;;;;;5095019;28;20373;-83
2022/01/18 06:26:02;;;;;;;7.75;3.97;;;0.80;99.90;;;;;;5095402;28;20054;-83
2022/01/18 06:28:28;;;;;;;8.20;4.47;;;0.80;99.90;;;;;;5094882;28;20099;-83
2022/01/18 06:30:54;;;;;;;9.82;4.88;;;0.80;99.90;;;;;;5077369;28;20031;-83
2022/01/18 06:33:20;;;;;;;10.73;5.50;;;0.80;99.90;;;;;;5078187;28;20024;-83
2022/01/18 06:35:46;;;;;;;12.82;6.43;;;0.80;99.90;;;;;;5077321;28;20024;-83
2022/01/18 06:38:12;;;;;;;11.85;6.07;;;0.80;99.90;;;;;;5076407;28;20032;-83
2022/01/18 06:40:39;;;;;;;9.75;5.70;;;0.80;99.90;;;;;;5094125;28;20443;-83
2022/01/18 06:43:05;;;;;;;10.23;5.22;;;0.80;99.90;;;;;;5094422;28;20020;-84
2022/01/18 06:45:30;;;;;;;8.98;4.65;;;0.80;99.90;;;;;;5094612;28;20078;-84
2022/01/18 06:47:56;;;;;;;7.57;4.22;;;0.80;99.90;;;;;;5093926;28;20024;-83
2022/01/18 06:50:22;;;;;;;6.43;4.10;;;0.80;99.90;;;;;;5075746;28;20039;-83
2022/01/18 06:52:48;;;;;;;7.45;4.07;;;0.80;99.90;;;;;;5094043;28;20070;-83
2022/01/18 06:55:13;;;;;;;7.45;4.30;;;0.70;99.90;;;;;;5075779;28;20047;-83
2022/01/18 06:57:39;;;;;;;7.90;4.22;;;0.70;99.90;;;;;;5076651;28;20031;-83
2022/01/18 07:00:06;;;;;;;7.13;3.80;;;0.70;99.90;;;;;;5075899;28;20021;-83
2022/01/18 07:02:32;;;;;;;8.30;4.90;;;0.80;99.90;;;;;;5075996;28;20020;-83
2022/01/18 07:04:58;;;;;;;8.15;4.70;;;0.70;99.90;;;;;;5094107;28;20553;-83
2022/01/18 07:07:24;;;;;;;9.10;4.80;;;0.80;99.90;;;;;;5093805;28;20024;-83
2022/01/18 07:09:50;;;;;;;8.50;4.75;;;0.80;99.90;;;;;;5094150;28;20066;-83
2022/01/18 07:12:17;;;;;;;8.93;5.05;;;0.80;99.90;;;;;;5094011;28;20441;-83
2022/01/18 07:14:44;;;;;;;10.55;5.72;;;0.80;99.90;;;;;;5094022;28;20027;-83
2022/01/18 07:17:10;;;;;;;12.77;6.82;;;0.80;99.90;;;;;;5075613;28;20020;-83
2022/01/18 07:19:37;;;;;;;18.90;10.27;;;0.80;99.90;;;;;;5094136;28;20024;-83
2022/01/18 07:22:03;;;;;;;14.45;7.53;;;0.90;99.90;;;;;;5094000;28;20027;-83
2022/01/18 07:24:38;;;;;;;11.95;6.80;;;0.90;99.90;;;;;;5075540;28;20563;-83
2022/01/18 07:27:08;;;;;;;11.43;6.82;;;0.90;99.90;;;;;;5093903;28;20021;-83
2022/01/18 07:29:34;;;;;;;10.52;5.80;;;0.90;99.90;;;;;;5075613;28;20024;-83
2022/01/18 07:32:00;;;;;;;9.98;5.65;;;0.90;99.90;;;;;;5075718;28;20035;-83
2022/01/18 07:34:26;;;;;;;9.40;5.78;;;0.90;99.90;;;;;;5076108;28;20577;-83
2022/01/18 07:36:52;;;;;;;9.93;5.53;;;0.90;99.90;;;;;;5096974;28;20020;-83
2022/01/18 07:39:18;;;;;;;10.13;5.50;;;0.90;99.90;;;;;;5079156;28;20031;-83
2022/01/18 07:41:43;;;;;;;10.07;5.20;;;0.90;99.90;;;;;;5079031;28;20027;-83
2022/01/18 07:44:09;;;;;;;9.40;5.43;;;0.90;99.90;;;;;;5079071;28;20020;-83
2022/01/18 07:46:35;;;;;;;9.63;5.10;;;0.90;99.90;;;;;;5097143;28;20020;-83
2022/01/18 07:49:00;;;;;;;10.07;5.80;;;1.00;99.90;;;;;;5097794;28;20024;-83
2022/01/18 07:51:26;;;;;;;12.15;6.30;;;1.00;99.90;;;;;;5079793;28;20493;-83
2022/01/18 07:53:52;;;;;;;13.38;6.10;;;1.10;99.90;;;;;;5097215;28;20027;-83
2022/01/18 07:56:17;;;;;;;14.43;6.93;;;1.10;99.90;;;;;;5096970;28;20024;-83
2022/01/18 07:58:44;;;;;;;16.77;8.35;;;1.10;99.90;;;;;;5096952;28;20063;-83
2022/01/18 08:01:09;;;;;;;12.50;7.30;;;1.20;99.90;;;;;;5097283;28;20107;-83
2022/01/18 08:03:35;;;;;;;14.43;6.88;;;1.20;99.90;;;;;;5097214;28;20507;-83
2022/01/18 08:06:01;;;;;;;16.80;8.30;;;1.20;99.90;;;;;;5096747;28;20028;-83
2022/01/18 08:08:27;;;;;;;65.82;25.90;;;1.30;99.90;;;;;;5078480;28;20028;-83
2022/01/18 08:10:54;;;;;;;38.67;16.27;;;1.30;99.90;;;;;;5078960;28;20395;-83
2022/01/18 08:13:25;;;;;;;38.25;16.13;;;1.40;99.90;;;;;;5098119;28;20035;-83
2022/01/18 08:15:59;;;;;;;17.40;8.93;;;1.40;99.90;;;;;;5099034;28;20028;-83
2022/01/18 08:18:24;;;;;;;24.60;13.13;;;1.50;99.90;;;;;;5097399;28;20021;-83
2022/01/18 08:20:50;;;;;;;17.17;9.73;;;1.50;99.90;;;;;;5096933;28;20031;-83
2022/01/18 08:23:16;;;;;;;19.73;9.77;;;1.60;99.90;;;;;;5078599;28;20024;-83
2022/01/18 08:25:41;;;;;;;16.65;9.80;;;1.60;99.90;;;;;;5096921;28;20032;-82
2022/01/18 08:28:07;;;;;;;19.20;9.70;;;1.60;99.90;;;;;;5078534;28;20020;-83
2022/01/18 08:30:33;;;;;;;17.70;9.75;;;1.70;99.90;;;;;;5095998;28;20028;-83
2022/01/18 08:32:59;;;;;;;17.08;9.35;;;1.70;99.90;;;;;;5095761;28;20100;-83
2022/01/18 08:35:25;;;;;;;16.90;8.85;;;1.70;99.90;;;;;;5095815;28;20024;-83
2022/01/18 08:37:51;;;;;;;17.02;8.88;;;1.70;99.90;;;;;;5077796;28;20445;-83
2022/01/18 08:40:17;;;;;;;17.73;8.82;;;1.80;99.90;;;;;;5077487;28;20060;-83
2022/01/18 08:42:43;;;;;;;16.63;9.10;;;1.80;99.90;;;;;;5095717;28;20365;-83
2022/01/18 08:45:10;;;;;;;20.33;10.00;;;1.80;99.90;;;;;;5077919;28;20490;-82
2022/01/18 08:47:36;;;;;;;16.95;9.57;;;1.90;99.90;;;;;;5095643;28;20462;-83
2022/01/18 08:50:03;;;;;;;20.35;10.68;;;1.90;99.90;;;;;;5096125;28;20024;-83
2022/01/18 08:52:29;;;;;;;21.05;10.77;;;1.90;99.90;;;;;;5095627;28;20028;-83
2022/01/18 08:54:55;;;;;;;15.38;9.10;;;1.90;99.90;;;;;;5095585;28;20035;-83
2022/01/18 08:57:20;;;;;;;20.13;10.05;;;1.90;99.90;;;;;;5077419;28;20031;-83
2022/01/18 08:59:47;;;;;;;18.17;9.98;;;1.90;99.90;;;;;;5095875;28;20023;-82
2022/01/18 09:02:13;;;;;;;21.92;11.02;;;2.00;99.90;;;;;;5077310;28;20028;-83
2022/01/18 09:04:40;;;;;;;19.27;10.57;;;2.00;99.90;;;;;;5095583;28;20403;-83
2022/01/18 09:07:08;;;;;;;19.00;10.25;;;2.00;99.90;;;;;;5095391;28;20483;-83
2022/01/18 09:09:39;;;;;;;19.95;11.52;;;2.00;99.90;;;;;;5077300;28;20032;-83
2022/01/18 09:12:08;;;;;;;20.85;12.25;;;2.10;99.90;;;;;;5095272;28;20149;-83
2022/01/18 09:14:34;;;;;;;21.67;11.77;;;2.10;99.90;;;;;;5077093;28;20051;-83
2022/01/18 09:16:59;;;;;;;21.27;11.93;;;2.10;99.90;;;;;;5095070;28;20468;-83
2022/01/18 09:19:26;;;;;;;22.50;11.27;;;2.10;99.90;;;;;;5095117;28;20099;-83
2022/01/18 09:21:51;;;;;;;22.70;10.63;;;2.10;99.90;;;;;;5095550;28;20031;-83
2022/01/18 09:24:17;;;;;;;23.50;11.35;;;2.20;99.90;;;;;;5095124;28;20024;-83
2022/01/18 09:26:43;;;;;;;20.27;10.98;;;2.30;99.90;;;;;;5076680;28;20027;-82
2022/01/18 09:29:10;;;;;;;23.38;12.25;;;2.40;99.90;;;;;;5076954;28;20035;-82
2022/01/18 09:31:37;;;;;;;25.60;12.60;;;2.40;99.90;;;;;;5076801;28;20028;-82
2022/01/18 09:34:04;;;;;;;18.50;10.60;;;2.40;99.90;;;;;;5076936;28;20027;-82
2022/01/18 09:36:30;;;;;;;21.92;11.48;;;2.50;99.90;;;;;;5095047;28;20065;-82
2022/01/18 09:38:56;;;;;;;21.42;11.43;;;2.50;99.90;;;;;;5094969;28;20464;-82
2022/01/18 09:41:28;;;;;;;21.95;12.23;;;2.50;99.90;;;;;;5095211;28;20032;-82
2022/01/18 09:43:54;;;;;;;20.92;11.70;;;2.50;99.90;;;;;;5095250;28;20028;-82
2022/01/18 09:46:22;;;;;;;22.30;12.23;;;2.50;99.90;;;;;;5095103;28;20047;-83
2022/01/18 09:48:51;;;;;;;21.65;12.18;;;2.60;99.90;;;;;;5094953;28;20032;-82
2022/01/18 09:51:17;;;;;;;19.42;10.95;;;2.60;99.90;;;;;;5095154;28;20020;-82
2022/01/18 09:53:42;;;;;;;24.67;12.50;;;2.70;99.90;;;;;;5095047;28;20097;-82
2022/01/18 09:56:08;;;;;;;20.48;11.60;;;2.70;99.90;;;;;;5076461;28;20067;-83
2022/01/18 09:58:34;;;;;;;21.90;11.07;;;2.70;99.90;;;;;;5095321;28;20069;-82
2022/01/18 10:00:59;;;;;;;20.75;11.27;;;2.80;99.90;;;;;;5095069;28;20020;-82
2022/01/18 10:03:32;;;;;;;19.70;10.73;;;2.90;99.90;;;;;;5094795;28;20075;-82
2022/01/18 10:05:59;;;;;;;19.05;10.55;;;3.00;99.90;;;;;;5094512;28;20035;-82
2022/01/18 10:08:25;;;;;;;18.27;10.57;;;3.10;99.90;;;;;;5076449;28;20024;-82
2022/01/18 10:10:59;;;;;;;18.90;9.73;;;3.20;99.90;;;;;;5095138;28;20032;-82
2022/01/18 10:13:31;;;;;;;17.90;9.45;;;3.20;99.90;;;;;;5094442;28;20024;-82
2022/01/18 10:16:11;;;;;;;16.23;8.98;;;3.30;99.90;;;;;;5094658;28;20020;-82
2022/01/18 10:18:56;;;;;;;19.85;10.00;;;3.30;99.90;;;;;;5076514;28;20030;-82
2022/01/18 10:21:40;;;;;;;19.80;9.70;;;3.40;99.90;;;;;;5094402;28;20024;-82
2022/01/18 10:24:30;;;;;;;18.50;9.30;;;3.50;99.90;;;;;;5094633;28;20020;-82
2022/01/18 10:26:56;;;;;;;16.60;8.55;;;3.40;99.90;;;;;;5094254;28;20423;-82
2022/01/18 10:29:31;;;;;;;14.65;8.55;;;3.40;99.90;;;;;;5094013;28;20024;-82
2022/01/18 10:31:59;;;;;;;16.58;8.85;;;3.30;99.90;;;;;;5094186;28;20020;-82
2022/01/18 10:37:19;;;;;;;16.35;9.00;;;3.20;99.90;;;;;;5093774;28;20016;-82
2022/01/18 10:39:49;;;;;;;23.17;11.90;;;3.20;99.90;;;;;;5093851;28;20527;-82
2022/01/18 10:42:32;;;;;;;23.20;11.82;;;3.10;99.90;;;;;;5093773;28;20026;-82
2022/01/18 10:45:13;;;;;;;24.38;12.25;;;3.00;99.90;;;;;;5093883;28;20016;-82
2022/01/18 10:47:50;;;;;;;23.90;12.23;;;2.90;99.90;;;;;;5094100;28;20028;-82
2022/01/18 10:50:18;;;;;;;21.05;11.20;;;3.00;99.90;;;;;;5076429;28;20089;-82
2022/01/18 10:52:43;;;;;;;23.00;10.77;;;3.00;99.90;;;;;;5095438;28;20080;-82
2022/01/18 10:55:35;;;;;;;20.73;10.93;;;3.10;99.90;;;;;;5094339;28;20503;-82
2022/01/18 10:58:13;;;;;;;22.20;11.85;;;3.20;99.90;;;;;;5091932;28;20036;-82
2022/01/18 11:00:39;;;;;;;20.15;11.60;;;3.20;99.90;;;;;;5094710;28;20024;-82
2022/01/18 11:03:07;;;;;;;24.80;11.63;;;3.30;99.90;;;;;;5094155;28;20094;-82
2022/01/18 11:05:35;;;;;;;20.10;11.25;;;3.40;99.90;;;;;;5076155;28;20127;-82
2022/01/18 11:08:04;;;;;;;19.98;11.52;;;3.50;99.90;;;;;;5077025;28;20031;-82
2022/01/18 11:10:40;;;;;;;18.13;9.88;;;3.60;99.90;;;;;;5079447;28;20488;-82
2022/01/18 11:13:11;;;;;;;19.77;11.05;;;3.70;99.90;;;;;;5098706;28;20035;-82
2022/01/18 11:15:42;;;;;;;19.10;10.43;;;3.70;99.90;;;;;;5098146;28;20024;-82
2022/01/18 11:18:36;;;;;;;16.65;9.68;;;3.80;99.90;;;;;;5081536;28;20024;-82
2022/01/18 11:20:57;;;;;;;18.20;10.55;;;3.80;99.90;;;;;;5098119;28;20036;-82
2022/01/18 11:23:24;;;;;;;16.52;9.77;;;3.90;99.90;;;;;;5079565;28;20024;-82
2022/01/18 11:25:53;;;;;;;18.02;10.18;;;4.00;99.90;;;;;;5079369;28;20444;-82
2022/01/18 11:28:19;;;;;;;18.02;10.18;;;4.10;99.90;;;;;;5098070;28;20027;-82
2022/01/18 11:30:47;;;;;;;16.25;9.65;;;4.10;99.90;;;;;;5097626;28;20028;-82
2022/01/18 11:33:15;;;;;;;17.17;10.02;;;4.10;99.90;;;;;;5079040;28;20024;-82
2022/01/18 11:35:54;;;;;;;14.77;9.43;;;4.20;99.90;;;;;;5097656;28;20031;-83
2022/01/18 11:38:42;;;;;;;17.50;10.32;;;4.30;99.90;;;;;;5078725;28;20054;-83
2022/01/18 11:41:27;;;;;;;16.88;9.85;;;4.40;99.90;;;;;;5079027;28;20031;-83
2022/01/18 11:43:55;;;;;;;16.88;9.77;;;4.50;99.90;;;;;;5097245;28;20020;-83
2022/01/18 11:46:24;;;;;;;15.82;6.72;;;4.60;99.90;;;;;;5098121;28;20020;-83
2022/01/18 11:48:59;;;;;;;11.73;6.65;;;4.70;99.90;;;;;;5081168;28;20463;-83
2022/01/18 11:51:48;;;;;;;15.48;7.05;;;4.80;99.90;;;;;;5097708;28;20046;-83
2022/01/18 11:55:00;;;;;;;12.80;6.80;;;4.80;99.90;;;;;;5097220;28;20028;-83
2022/01/18 11:57:27;;;;;;;14.02;6.85;;;4.80;99.90;;;;;;5097127;28;20067;-83
2022/01/18 12:00:17;;;;;;;10.95;6.57;;;4.80;99.90;;;;;;5079190;28;20031;-83
2022/01/18 12:02:45;;;;;;;15.48;8.70;;;4.70;99.90;;;;;;5097560;28;20040;-83
2022/01/18 12:05:14;;;;;;;11.25;7.10;;;4.70;99.90;;;;;;5078529;28;20157;-83
2022/01/18 12:07:41;;;;;;;11.82;6.25;;;4.70;99.90;;;;;;5096445;28;20480;-83
2022/01/18 12:10:37;;;;;;;12.32;6.28;;;4.70;99.90;;;;;;5096743;28;20024;-83
2022/01/18 12:13:11;;;;;;;9.10;6.00;;;4.70;99.90;;;;;;5096517;28;20027;-83
2022/01/18 12:15:38;;;;;;;10.90;5.55;;;4.70;99.90;;;;;;5078723;28;20024;-83
2022/01/18 12:18:13;;;;;;;9.35;5.13;;;4.70;99.90;;;;;;5078611;28;20024;-83
2022/01/18 12:20:46;;;;;;;8.18;5.18;;;4.80;99.90;;;;;;5078311;28;20016;-83
2022/01/18 12:23:27;;;;;;;7.40;4.75;;;4.90;99.90;;;;;;5096883;28;20016;-83
2022/01/18 12:26:28;;;;;;;6.95;4.30;;;4.80;99.90;;;;;;5096815;28;20081;-83
2022/01/18 12:34:25;;;;;;;;;;;4.80;99.90;;;;;;5097131;28;20455;-83
2022/01/18 12:36:52;;;;;;;4.90;3.28;;;4.80;99.90;;;;;;5096373;28;19946;-84
2022/01/18 12:39:18;;;;;;;4.15;2.53;;;4.80;99.90;;;;;;5078267;28;20115;-84
2022/01/18 12:41:48;;;;;;;3.13;1.95;;;4.80;99.90;;;;;;5079426;28;20482;-83
2022/01/18 12:44:24;;;;;;;4.70;2.13;;;4.80;99.90;;;;;;5079779;28;20052;-84
2022/01/18 12:46:56;;;;;;;2.88;1.50;;;4.80;99.90;;;;;;5098503;28;20095;-83
2022/01/18 12:49:23;;;;;;;2.72;1.60;;;4.80;99.90;;;;;;5097603;28;20099;-83
2022/01/18 12:51:59;;;;;;;2.45;1.40;;;4.80;99.90;;;;;;5095836;28;20032;-83
2022/01/18 12:54:38;;;;;;;2.70;1.40;;;4.80;99.90;;;;;;5077590;28;20056;-83
2022/01/18 12:57:19;;;;;;;3.40;1.52;;;4.80;99.90;;;;;;5096279;28;20025;-84
2022/01/18 13:00:06;;;;;;;2.97;1.60;;;4.90;99.90;;;;;;5077745;28;20059;-84
2022/01/18 13:02:32;;;;;;;3.47;1.70;;;4.90;99.90;;;;;;5077498;28;20538;-85
2022/01/18 13:05:07;;;;;;;2.83;1.60;;;4.90;99.90;;;;;;5077898;28;20055;-83
2022/01/18 13:07:47;;;;;;;3.75;1.73;;;4.90;99.90;;;;;;5096651;28;20050;-84
2022/01/18 13:10:13;;;;;;;3.10;1.70;;;5.00;99.90;;;;;;5096097;28;20080;-83
2022/01/18 13:12:43;;;;;;;3.53;1.98;;;5.10;99.90;;;;;;5078097;28;20539;-83
2022/01/18 13:15:11;;;;;;;3.60;2.00;;;5.10;99.90;;;;;;5096980;28;20026;-83
2022/01/18 13:23:16;;;;;;;4.47;2.63;;;5.10;99.90;;;;;;5095981;28;20043;-84
2022/01/18 13:25:52;;;;;;;4.68;2.72;;;5.10;99.90;;;;;;5079177;28;20118;-84
2022/01/18 13:28:18;;;;;;;4.60;2.72;;;5.10;99.90;;;;;;5095612;28;20024;-84
2022/01/18 13:30:44;;;;;;;4.57;2.58;;;5.10;99.90;;;;;;5095965;28;20024;-84
2022/01/18 13:33:12;;;;;;;3.90;2.20;;;5.00;99.90;;;;;;5095019;28;20101;-84
2022/01/18 13:35:38;;;;;;;4.72;2.25;;;5.00;99.90;;;;;;5095798;28;20020;-84
2022/01/18 13:38:04;;;;;;;4.20;2.55;;;5.00;99.90;;;;;;5077127;28;20051;-84
2022/01/18 13:40:31;;;;;;;3.65;2.20;;;5.00;99.90;;;;;;5077293;28;20448;-84
2022/01/18 13:43:07;;;;;;;3.75;2.50;;;5.00;99.90;;;;;;5095654;28;20078;-84
2022/01/18 13:45:37;;;;;;;5.80;2.58;;;4.90;99.90;;;;;;5077295;28;20027;-84
2022/01/18 13:48:10;;;;;;;5.53;2.70;;;4.90;99.90;;;;;;5095369;28;20391;-84
2022/01/18 13:50:48;;;;;;;5.50;2.25;;;4.80;99.90;;;;;;5094800;28;20043;-84
2022/01/18 13:53:21;;;;;;;3.70;2.10;;;4.70;99.90;;;;;;5076625;28;20500;-84
2022/01/18 13:55:54;;;;;;;3.33;1.95;;;4.70;99.90;;;;;;5077001;28;20474;-84
2022/01/18 13:58:28;;;;;;;4.85;2.10;;;4.70;99.90;;;;;;5094736;28;20024;-84
2022/01/18 14:01:06;;;;;;;6.07;2.45;;;4.70;99.90;;;;;;5095067;28;20380;-84
2022/01/18 14:03:34;;;;;;;4.38;2.08;;;4.60;99.90;;;;;;5094058;28;20023;-85
2022/01/18 14:06:00;;;;;;;3.97;2.33;;;4.50;99.90;;;;;;5076199;28;20027;-84
2022/01/18 14:08:35;;;;;;;4.82;2.58;;;4.30;99.90;;;;;;5095269;28;20036;-83
2022/01/18 14:11:07;;;;;;;5.07;2.80;;;4.20;99.90;;;;;;5095523;28;20028;-83
2022/01/18 14:13:36;;;;;;;4.35;2.55;;;4.10;99.90;;;;;;5076674;28;20555;-83
2022/01/18 14:16:21;;;;;;;5.38;2.50;;;4.00;99.90;;;;;;5076575;28;20028;-83
2022/01/18 14:18:58;;;;;;;3.88;2.25;;;4.00;99.90;;;;;;5095163;28;20353;-83
2022/01/18 14:21:26;;;;;;;5.15;2.83;;;4.00;99.90;;;;;;5094960;28;20020;-83
2022/01/18 14:24:12;;;;;;;4.43;2.70;;;3.90;99.90;;;;;;5094787;28;20103;-83
2022/01/18 14:26:51;;;;;;;3.97;2.38;;;3.80;99.90;;;;;;5094617;28;20369;-83
2022/01/18 14:29:18;;;;;;;3.97;2.60;;;3.80;99.90;;;;;;5095304;28;20024;-83